Veidnes — LLSD — position and weather

sailwx.info

Track history (hours):
 
Tides and Currents Weather Stations Pressure Air Temp Water Temp Dewpoint Dewpoint Depression Visibility Wind Speed Wind Dir Waves Ship Positions

Veidnes

Last reported at 2017-Apr-23 11:23 UTC. Time now 2017-Apr-23 11:50 UTC.
Position N 68°01' E 015°20'.

Length 51 m; draft 5 m.

Type: Cargo ship. MMSI: 259237000.

Date/timePositionNaut miles runAvg speedWind from/ knotsBaromVisibWave heightAir tempDewpointWater temp
2017-Apr-23 11:23N 68°01' E 015°20'0 0.0
2017-Apr-23 10:59N 68°01' E 015°20'0 0.0
2017-Apr-23 10:29N 68°01' E 015°20'0 0.0
2017-Apr-23 09:56N 68°01' E 015°20'0 0.0
2017-Apr-23 09:29N 68°01' E 015°20'0 0.0
2017-Apr-23 08:59N 68°01' E 015°20'0 0.0
2017-Apr-23 08:29N 68°01' E 015°20'0 0.0
2017-Apr-23 07:59N 68°01' E 015°20'0 0.0
2017-Apr-23 07:29N 68°01' E 015°20'0 0.0
2017-Apr-23 06:59N 68°01' E 015°20'0 0.0
2017-Apr-23 06:29N 68°01' E 015°20'0 0.0
2017-Apr-23 05:59N 68°01' E 015°20'0 0.0
2017-Apr-23 05:29N 68°01' E 015°20'0 0.0
2017-Apr-23 04:59N 68°01' E 015°20'0 0.0
2017-Apr-23 04:29N 68°01' E 015°20'0 0.0
2017-Apr-23 03:59N 68°01' E 015°20'0 0.0
2017-Apr-23 03:29N 68°01' E 015°20'0 0.0
2017-Apr-23 02:59N 68°01' E 015°20'0 0.0
2017-Apr-23 02:29N 68°01' E 015°20'0 0.0
2017-Apr-23 01:59N 68°01' E 015°20'0 0.0
2017-Apr-23 01:26N 68°01' E 015°20'0 0.0
2017-Apr-23 00:59N 68°01' E 015°20'0 0.0
2017-Apr-23 00:29N 68°01' E 015°20'0 0.0
2017-Apr-22 23:59N 68°01' E 015°20'0 0.0
2017-Apr-22 23:29N 68°01' E 015°20'0 0.0
2017-Apr-22 22:56N 68°01' E 015°20'0 0.0
2017-Apr-22 22:29N 68°01' E 015°20'0 0.0
2017-Apr-22 21:59N 68°01' E 015°20'0 0.0
2017-Apr-22 21:29N 68°01' E 015°20'0 0.0
2017-Apr-22 20:58N 68°01' E 015°20'0 0.0
2017-Apr-22 20:28N 68°01' E 015°20'0 0.0
2017-Apr-22 19:58N 68°01' E 015°20'0 0.0
2017-Apr-22 19:28N 68°01' E 015°20'0 0.0
2017-Apr-22 18:58N 68°01' E 015°20'0 0.0
2017-Apr-22 18:28N 68°01' E 015°20'0 0.0
2017-Apr-22 17:58N 68°01' E 015°20'0 0.0
2017-Apr-22 17:28N 68°01' E 015°20'0 0.0
2017-Apr-22 16:58N 68°01' E 015°20'0 0.0
2017-Apr-22 16:28N 68°01' E 015°20'0 0.0
2017-Apr-22 15:58N 68°01' E 015°20'0 0.0
2017-Apr-22 15:28N 68°01' E 015°20'0 0.0
2017-Apr-22 14:55N 68°01' E 015°20'0 0.0
2017-Apr-22 14:28N 68°01' E 015°20'0 0.0
2017-Apr-22 13:28N 68°01' E 015°20'0 0.0
2017-Apr-22 12:52N 68°01' E 015°20'0 0.0
2017-Apr-22 12:28N 68°01' E 015°20'0 0.0
2017-Apr-22 11:58N 68°01' E 015°20'0 0.0
2017-Apr-22 11:28N 68°01' E 015°20'0 0.0
2017-Apr-22 10:52N 68°01' E 015°20'0 0.0
2017-Apr-22 10:28N 68°01' E 015°20'0 0.0
2017-Apr-22 10:00N 68°01' E 015°20'2 5.0
2017-Apr-22 09:30N 67°58' E 015°19'1 1.6
2017-Apr-22 09:00N 67°58' E 015°21'2 4.6
2017-Apr-22 08:30N 68°00' E 015°18'3 6.0
2017-Apr-22 08:00N 68°03' E 015°14'4 7.3
2017-Apr-22 07:30N 68°06' E 015°09'3 7.1
2017-Apr-22 07:00N 68°09' E 015°04'5 9.2
2017-Apr-22 06:30N 68°13' E 014°57'5 9.3
2017-Apr-22 06:01N 68°17' E 014°58'5 9.3
2017-Apr-22 05:30N 68°22' E 015°03'5 9.3
2017-Apr-22 04:59N 68°26' E 015°09'4 8.4
2017-Apr-22 04:30N 68°30' E 015°11'510.0
2017-Apr-22 04:00N 68°35' E 015°13'610.9
2017-Apr-22 03:30N 68°39' E 015°23'510.7
2017-Apr-22 03:00N 68°44' E 015°25'611.4
2017-Apr-22 02:30N 68°50' E 015°26'510.0
2017-Apr-22 02:00N 68°54' E 015°17'0 0.1
2017-Apr-22 01:30N 68°54' E 015°17'1 2.9
2017-Apr-22 01:00N 68°53' E 015°20'4 7.6
2017-Apr-22 00:29N 68°50' E 015°26'4 8.5
2017-Apr-21 23:59N 68°46' E 015°25'4 7.5
2017-Apr-21 23:30N 68°42' E 015°26'4 7.7
2017-Apr-21 23:00N 68°38' E 015°21'4 8.4
2017-Apr-21 22:30N 68°35' E 015°13'4 8.2
2017-Apr-21 22:00N 68°31' E 015°10'4 7.8
2017-Apr-21 21:30N 68°28' E 015°12'5 9.4
2017-Apr-21 21:00N 68°23' E 015°05'4 8.5
2017-Apr-21 20:30N 68°20' E 014°60'4 7.9
2017-Apr-21 20:01N 68°16' E 014°58'4 8.0
2017-Apr-21 19:30N 68°12' E 014°59'4 8.7
2017-Apr-21 19:00N 68°08' E 015°05'4 8.8
2017-Apr-21 18:31N 68°05' E 015°11'4 8.3
2017-Apr-21 18:01N 68°01' E 015°17'4 8.1
2017-Apr-21 17:30N 67°57' E 015°23'4 8.1
2017-Apr-21 17:00N 67°58' E 015°33'4 8.6
2017-Apr-21 16:30N 67°58' E 015°44'2 3.3
2017-Apr-21 16:00N 67°58' E 015°48'0 0.0
2017-Apr-21 15:30N 67°58' E 015°48'0 0.0
2017-Apr-21 15:00N 67°58' E 015°48'3 5.3
2017-Apr-21 14:30N 67°58' E 015°41'8 7.9
2017-Apr-21 13:30N 67°60' E 015°21'1 2.0
2017-Apr-21 12:58N 68°01' E 015°20'0 0.0
2017-Apr-21 12:28N 68°01' E 015°20'0 0.0
2017-Apr-21 11:58N 68°01' E 015°20'0 0.0
2017-Apr-21 11:28N 68°01' E 015°20'0 0.0
2017-Apr-21 10:58N 68°01' E 015°20'0 0.0
2017-Apr-21 10:28N 68°01' E 015°20'0 0.0
2017-Apr-21 09:58N 68°01' E 015°20'0 0.0
2017-Apr-21 09:28N 68°01' E 015°20'0 0.0
2017-Apr-21 08:55N 68°01' E 015°20'0 0.0
2017-Apr-21 08:28N 68°01' E 015°20'0 0.0
2017-Apr-21 07:55N 68°01' E 015°20'0 0.0
2017-Apr-21 07:28N 68°01' E 015°20'0 0.0
2017-Apr-21 06:58N 68°01' E 015°20'0 0.0
2017-Apr-21 06:28N 68°01' E 015°20'0 0.0
2017-Apr-21 05:52N 68°01' E 015°20'0 0.0
2017-Apr-21 05:28N 68°01' E 015°20'0 0.0
2017-Apr-21 04:52N 68°01' E 015°20'0 0.0
2017-Apr-21 04:31N 68°01' E 015°20'0 0.0
2017-Apr-21 04:01N 68°01' E 015°20'0 0.0
2017-Apr-21 03:30N 68°01' E 015°20'0 0.0
2017-Apr-21 03:00N 68°01' E 015°20'0 0.0
2017-Apr-21 02:27N 68°01' E 015°20'0 0.0
2017-Apr-21 02:00N 68°01' E 015°20'0 0.0
2017-Apr-21 01:30N 68°01' E 015°20'0 0.0
2017-Apr-21 01:00N 68°01' E 015°20'0 0.0
2017-Apr-21 00:27N 68°01' E 015°20'0 0.0
2017-Apr-21 00:00N 68°01' E 015°20'0 0.0
2017-Apr-20 23:30N 68°01' E 015°20'0 0.0
2017-Apr-20 23:00N 68°01' E 015°20'0 0.0
2017-Apr-20 22:30N 68°01' E 015°20'0 0.0
2017-Apr-20 22:00N 68°01' E 015°20'0 0.0
2017-Apr-20 21:27N 68°01' E 015°20'0 0.0
2017-Apr-20 20:57N 68°01' E 015°20'0 0.0
2017-Apr-20 20:30N 68°01' E 015°20'0 0.0
2017-Apr-20 20:00N 68°01' E 015°20'0 0.0
2017-Apr-20 19:30N 68°01' E 015°20'0 0.1
2017-Apr-20 19:00N 68°01' E 015°20'4 7.9
2017-Apr-20 18:30N 67°57' E 015°23'4 8.0
2017-Apr-20 18:00N 67°58' E 015°34'4 8.2
2017-Apr-20 17:30N 67°58' E 015°45'2 3.0
2017-Apr-20 17:00N 67°58' E 015°48'0 0.0
2017-Apr-20 16:30N 67°58' E 015°48'0 0.1
2017-Apr-20 16:00N 67°58' E 015°48'0 0.0
2017-Apr-20 15:30N 67°58' E 015°48'2 3.1
2017-Apr-20 15:00N 67°58' E 015°45'1110.8
2017-Apr-20 14:00N 67°55' E 015°17'2 4.9
2017-Apr-20 13:30N 67°54' E 015°11'0 0.0
2017-Apr-20 13:01N 67°54' E 015°11'3 5.9
2017-Apr-20 12:30N 67°55' E 015°18'5 9.7
2017-Apr-20 12:00N 68°00' E 015°21'1 1.6
2017-Apr-20 11:30N 68°01' E 015°20'0 0.0
2017-Apr-20 11:00N 68°01' E 015°20'0 0.0
2017-Apr-20 10:21N 68°01' E 015°20'0 0.0
2017-Apr-20 10:00N 68°01' E 015°20'0 0.0
2017-Apr-20 09:27N 68°01' E 015°20'0 0.0
2017-Apr-20 09:00N 68°01' E 015°20'0 0.0
2017-Apr-20 08:30N 68°01' E 015°20'0 0.0
2017-Apr-20 08:00N 68°01' E 015°20'0 0.0
2017-Apr-20 07:30N 68°01' E 015°20'0 0.0
2017-Apr-20 07:00N 68°01' E 015°20'0 0.0
2017-Apr-20 06:30N 68°01' E 015°20'0 0.0
2017-Apr-20 06:00N 68°01' E 015°20'0 0.0
2017-Apr-20 05:24N 68°01' E 015°20'0 0.0
2017-Apr-20 04:54N 68°01' E 015°20'0 0.0
2017-Apr-20 04:30N 68°01' E 015°20'0 0.0
2017-Apr-20 03:54N 68°01' E 015°20'0 0.0
2017-Apr-20 03:30N 68°01' E 015°20'0 0.0
2017-Apr-20 03:00N 68°01' E 015°20'0 0.0
2017-Apr-20 02:30N 68°01' E 015°20'0 0.0
2017-Apr-20 02:00N 68°01' E 015°20'0 0.0
2017-Apr-20 01:30N 68°01' E 015°20'0 0.0
2017-Apr-20 01:00N 68°01' E 015°20'0 0.0
2017-Apr-20 00:30N 68°01' E 015°20'0 0.0
2017-Apr-20 00:00N 68°01' E 015°20'0 0.0
2017-Apr-19 23:30N 68°01' E 015°20'0 0.0
2017-Apr-19 23:00N 68°01' E 015°20'0 0.0
2017-Apr-19 22:30N 68°01' E 015°20'0 0.0
2017-Apr-19 22:00N 68°01' E 015°20'0 0.0
2017-Apr-19 21:30N 68°01' E 015°20'0 0.0
2017-Apr-19 20:59N 68°01' E 015°20'0 0.0
2017-Apr-19 20:30N 68°01' E 015°20'0 0.0
2017-Apr-19 20:00N 68°01' E 015°20'0 0.0
2017-Apr-19 19:30N 68°01' E 015°20'0 0.0
2017-Apr-19 19:00N 68°01' E 015°20'0 0.0
2017-Apr-19 18:30N 68°01' E 015°20'0 0.0
2017-Apr-19 18:00N 68°01' E 015°20'0 0.0
2017-Apr-19 17:30N 68°01' E 015°20'2 3.5
2017-Apr-19 17:00N 67°59' E 015°21'3 6.9
2017-Apr-19 16:30N 67°57' E 015°29'4 8.7
2017-Apr-19 16:00N 67°58' E 015°40'3 6.4
2017-Apr-19 15:30N 67°58' E 015°48'0 0.0
2017-Apr-19 15:00N 67°58' E 015°48'0 0.0
2017-Apr-19 14:29N 67°58' E 015°48'9 9.4
2017-Apr-19 13:29N 67°57' E 015°23'4 8.1
2017-Apr-19 12:59N 68°01' E 015°20'0 0.0
2017-Apr-19 12:26N 68°01' E 015°20'0 0.0
2017-Apr-19 11:59N 68°01' E 015°20'0 0.0
2017-Apr-19 11:29N 68°01' E 015°20'0 0.0
2017-Apr-19 10:59N 68°01' E 015°20'0 0.0
2017-Apr-19 10:29N 68°01' E 015°20'0 0.0
2017-Apr-19 09:59N 68°01' E 015°20'0 0.0
2017-Apr-19 09:29N 68°01' E 015°20'0 0.0
2017-Apr-19 08:59N 68°01' E 015°20'0 0.0
2017-Apr-19 08:29N 68°01' E 015°20'0 0.0
2017-Apr-19 07:59N 68°01' E 015°20'0 0.0
2017-Apr-19 07:29N 68°01' E 015°20'0 0.0
2017-Apr-19 06:49N 68°01' E 015°20'0 0.0
2017-Apr-19 06:29N 68°01' E 015°20'0 0.0
2017-Apr-19 05:58N 68°01' E 015°20'0 0.0
2017-Apr-19 05:28N 68°01' E 015°20'0 0.0
2017-Apr-19 04:58N 68°01' E 015°20'0 0.0
2017-Apr-19 04:28N 68°01' E 015°20'0 0.0
2017-Apr-19 03:58N 68°01' E 015°20'0 0.0
2017-Apr-19 03:28N 68°01' E 015°20'0 0.0
2017-Apr-19 02:58N 68°01' E 015°20'0 0.0
2017-Apr-19 02:28N 68°01' E 015°20'0 0.0
2017-Apr-19 01:55N 68°01' E 015°20'0 0.0
2017-Apr-19 01:28N 68°01' E 015°20'0 0.0
2017-Apr-19 00:58N 68°01' E 015°20'0 0.0
2017-Apr-19 00:25N 68°01' E 015°20'0 0.0
2017-Apr-18 23:58N 68°01' E 015°20'0 0.0
2017-Apr-18 23:22N 68°01' E 015°20'0 0.0
2017-Apr-18 22:58N 68°01' E 015°20'0 0.0
2017-Apr-18 22:28N 68°01' E 015°20'0 0.0
2017-Apr-18 21:58N 68°01' E 015°20'0 0.0
2017-Apr-18 21:28N 68°01' E 015°20'0 0.0
2017-Apr-18 20:58N 68°01' E 015°20'0 0.0
2017-Apr-18 20:28N 68°01' E 015°20'0 0.0
2017-Apr-18 19:58N 68°01' E 015°20'0 0.0
2017-Apr-18 19:25N 68°01' E 015°20'0 0.0
2017-Apr-18 18:58N 68°01' E 015°20'1 1.8
2017-Apr-18 18:30N 68°00' E 015°21'4 7.1
2017-Apr-18 18:00N 67°57' E 015°25'4 8.0
2017-Apr-18 17:30N 67°58' E 015°36'4 7.9
2017-Apr-18 17:00N 67°58' E 015°46'1 2.2
2017-Apr-18 16:30N 67°58' E 015°48'0 0.0
2017-Apr-18 16:00N 67°58' E 015°48'1 2.2
2017-Apr-18 15:29N 67°58' E 015°46'510.8
2017-Apr-18 15:00N 67°57' E 015°32'611.2
2017-Apr-18 14:30N 67°55' E 015°18'3 2.9
2017-Apr-18 13:30N 67°54' E 015°11'2 3.6
2017-Apr-18 13:00N 67°55' E 015°16'5 9.3
2017-Apr-18 12:30N 67°59' E 015°21'2 4.2
2017-Apr-18 12:00N 68°01' E 015°20'0 0.0
2017-Apr-18 11:30N 68°01' E 015°20'0 0.0
2017-Apr-18 11:00N 68°01' E 015°20'0 0.0
2017-Apr-18 10:30N 68°01' E 015°20'0 0.0
2017-Apr-18 10:00N 68°01' E 015°20'0 0.0
2017-Apr-18 09:30N 68°01' E 015°20'0 0.0
2017-Apr-18 08:57N 68°01' E 015°20'0 0.0
2017-Apr-18 08:30N 68°01' E 015°20'0 0.0
2017-Apr-18 08:00N 68°01' E 015°20'0 0.0
2017-Apr-18 07:27N 68°01' E 015°20'0 0.0
2017-Apr-18 06:54N 68°01' E 015°20'0 0.0
2017-Apr-18 06:30N 68°01' E 015°20'0 0.0
2017-Apr-18 06:00N 68°01' E 015°20'0 0.0
2017-Apr-18 05:21N 68°01' E 015°20'0 0.0
2017-Apr-18 05:00N 68°01' E 015°20'0 0.0
2017-Apr-18 04:30N 68°01' E 015°20'0 0.0
2017-Apr-18 04:00N 68°01' E 015°20'0 0.0
2017-Apr-18 03:30N 68°01' E 015°20'0 0.0
2017-Apr-18 03:00N 68°01' E 015°20'0 0.0
2017-Apr-18 02:30N 68°01' E 015°20'0 0.0
2017-Apr-18 02:00N 68°01' E 015°20'0 0.0
2017-Apr-18 01:30N 68°01' E 015°20'0 0.0
2017-Apr-18 01:00N 68°01' E 015°20'0 0.0
2017-Apr-18 00:30N 68°01' E 015°20'0 0.0
2017-Apr-18 00:00N 68°01' E 015°20'0 0.0
2017-Apr-17 23:30N 68°01' E 015°20'0 0.0
2017-Apr-17 23:00N 68°01' E 015°20'0 0.0
2017-Apr-17 22:30N 68°01' E 015°20'0 0.0
2017-Apr-17 22:00N 68°01' E 015°20'0 0.0
2017-Apr-17 21:24N 68°01' E 015°20'0 0.0
2017-Apr-17 21:00N 68°01' E 015°20'0 0.0
2017-Apr-17 20:30N 68°01' E 015°20'0 0.0
2017-Apr-17 20:00N 68°01' E 015°20'0 0.0
2017-Apr-17 19:30N 68°01' E 015°20'0 0.0
2017-Apr-17 18:54N 68°01' E 015°20'0 0.0
2017-Apr-17 18:30N 68°01' E 015°20'0 0.0
2017-Apr-17 17:51N 68°01' E 015°20'0 0.0
2017-Apr-17 17:30N 68°01' E 015°20'0 0.0
2017-Apr-17 17:00N 68°01' E 015°20'3 6.2
2017-Apr-17 16:30N 67°58' E 015°22'4 7.9
2017-Apr-17 15:59N 67°58' E 015°33'4 9.0
2017-Apr-17 15:30N 67°58' E 015°45'2 3.1
2017-Apr-17 14:59N 67°58' E 015°48'0 0.0
2017-Apr-17 14:30N 67°58' E 015°48'6 6.4
2017-Apr-17 13:30N 67°58' E 015°31'4 8.9
2017-Apr-17 13:01N 67°59' E 015°20'5 9.4
2017-Apr-17 12:30N 68°03' E 015°14'5 9.4
2017-Apr-17 12:00N 68°07' E 015°07'5 9.4
2017-Apr-17 11:30N 68°11' E 015°00'4 8.8
2017-Apr-17 11:00N 68°15' E 014°57'5 9.3
2017-Apr-17 10:30N 68°20' E 014°60'5 9.5
2017-Apr-17 10:00N 68°24' E 015°06'510.0
2017-Apr-17 09:30N 68°28' E 015°12'4 8.3
2017-Apr-17 09:00N 68°32' E 015°10'5 9.3
2017-Apr-17 08:30N 68°36' E 015°16'5 9.6
2017-Apr-17 08:00N 68°40' E 015°24'2 3.9
2017-Apr-17 07:30N 68°42' E 015°25'0 0.0
2017-Apr-17 07:00N 68°42' E 015°25'0 0.0
2017-Apr-17 06:30N 68°42' E 015°25'0 0.0
2017-Apr-17 06:00N 68°42' E 015°25'0 0.0
2017-Apr-17 05:30N 68°42' E 015°25'0 0.0
2017-Apr-17 05:00N 68°42' E 015°25'1 1.6
2017-Apr-17 04:30N 68°43' E 015°26'510.1
2017-Apr-17 04:00N 68°48' E 015°26'510.0
2017-Apr-17 03:30N 68°52' E 015°23'3 5.2
2017-Apr-17 03:00N 68°54' E 015°17'0 0.3
2017-Apr-17 02:30N 68°54' E 015°18'4 7.6
2017-Apr-17 02:00N 68°51' E 015°25'5 9.2
2017-Apr-17 01:30N 68°47' E 015°26'5 8.9
2017-Apr-17 00:59N 68°42' E 015°26'4 8.2
2017-Apr-17 00:30N 68°39' E 015°21'4 8.7
2017-Apr-17 00:00N 68°35' E 015°13'4 8.4
2017-Apr-16 23:30N 68°31' E 015°10'4 7.7
2017-Apr-16 23:00N 68°28' E 015°12'4 8.0
2017-Apr-16 22:30N 68°24' E 015°06'4 8.4
2017-Apr-16 22:00N 68°20' E 015°01'4 8.1
2017-Apr-16 21:30N 68°16' E 014°58'4 8.3
2017-Apr-16 21:00N 68°12' E 014°58'4 8.7
2017-Apr-16 20:30N 68°09' E 015°04'4 8.8
2017-Apr-16 20:00N 68°05' E 015°10'4 8.8
2017-Apr-16 19:30N 68°01' E 015°17'4 8.8
2017-Apr-16 19:01N 67°58' E 015°23'4 8.5
2017-Apr-16 18:30N 67°58' E 015°34'4 9.0
2017-Apr-16 18:00N 67°58' E 015°46'1 2.4
2017-Apr-16 17:31N 67°58' E 015°48'0 0.0
2017-Apr-16 17:00N 67°58' E 015°48'0 0.0
2017-Apr-16 16:30N 67°58' E 015°48'4 7.6
2017-Apr-16 16:00N 67°58' E 015°38'510.8
2017-Apr-16 15:30N 67°57' E 015°24'510.8
2017-Apr-16 15:00N 68°02' E 015°16'1111.0
2017-Apr-16 14:00N 68°11' E 015°00'510.2
2017-Apr-16 13:30N 68°16' E 014°57'510.5
2017-Apr-16 13:00N 68°21' E 015°02'510.4
2017-Apr-16 12:30N 68°25' E 015°08'5 9.5
2017-Apr-16 12:00N 68°30' E 015°11'510.5
2017-Apr-16 11:30N 68°35' E 015°13'510.9
2017-Apr-16 11:00N 68°39' E 015°23'5 9.7
2017-Apr-16 10:30N 68°44' E 015°25'510.8
2017-Apr-16 10:00N 68°49' E 015°26'510.0
2017-Apr-16 09:30N 68°54' E 015°19'1 1.2
2017-Apr-16 09:00N 68°54' E 015°17'1 1.0
2017-Apr-16 08:30N 68°54' E 015°19'4 7.9
2017-Apr-16 08:00N 68°51' E 015°25'5 9.1
2017-Apr-16 07:30N 68°46' E 015°26'5 9.8
2017-Apr-16 07:00N 68°41' E 015°26'4 8.7
2017-Apr-16 06:30N 68°38' E 015°19'4 8.9
2017-Apr-16 06:00N 68°35' E 015°12'4 8.2
2017-Apr-16 05:30N 68°30' E 015°10'4 7.7
2017-Apr-16 05:00N 68°27' E 015°10'5 9.5
2017-Apr-16 04:30N 68°22' E 015°04'4 8.7
2017-Apr-16 04:00N 68°19' E 014°58'4 8.6
2017-Apr-16 03:30N 68°14' E 014°57'4 8.3
2017-Apr-16 03:00N 68°11' E 015°01'4 8.7
2017-Apr-16 02:30N 68°07' E 015°07'4 8.6
2017-Apr-16 02:01N 68°03' E 015°13'5 9.0
2017-Apr-16 01:30N 67°59' E 015°19'4 7.7
2017-Apr-16 01:00N 67°57' E 015°28'4 9.0
2017-Apr-16 00:30N 67°58' E 015°39'3 6.7
2017-Apr-16 00:00N 67°58' E 015°48'0 0.0
2017-Apr-15 23:30N 67°58' E 015°48'0 0.0
2017-Apr-15 22:59N 67°58' E 015°48'2 3.6
2017-Apr-15 22:29N 67°58' E 015°44'510.3
2017-Apr-15 22:00N 67°57' E 015°31'5 9.1
2017-Apr-15 21:30N 67°59' E 015°19'510.5
2017-Apr-15 21:01N 68°04' E 015°13'510.8
2017-Apr-15 20:31N 68°08' E 015°05'610.7
2017-Apr-15 20:00N 68°13' E 014°57'510.9
2017-Apr-15 19:30N 68°18' E 014°58'511.0
2017-Apr-15 19:00N 68°23' E 015°05'611.6
2017-Apr-15 18:30N 68°28' E 015°12'510.0
2017-Apr-15 18:00N 68°33' E 015°10'611.0
2017-Apr-15 17:30N 68°38' E 015°19'510.4
2017-Apr-15 17:00N 68°42' E 015°26'510.7
2017-Apr-15 16:30N 68°48' E 015°25'510.7
2017-Apr-15 16:00N 68°53' E 015°23'2 4.8
2017-Apr-15 15:30N 68°54' E 015°17'0 0.4
2017-Apr-15 15:00N 68°54' E 015°18'8 8.2
2017-Apr-15 14:00N 68°46' E 015°26'510.3
2017-Apr-15 13:30N 68°41' E 015°26'5 9.3
2017-Apr-15 13:00N 68°37' E 015°19'5 9.3
2017-Apr-15 12:30N 68°34' E 015°11'4 8.8
2017-Apr-15 12:00N 68°29' E 015°12'4 8.6
2017-Apr-15 11:30N 68°25' E 015°08'5 9.1
2017-Apr-15 11:00N 68°21' E 015°03'5 9.0
2017-Apr-15 10:29N 68°17' E 014°58'5 9.2
2017-Apr-15 09:59N 68°12' E 014°58'5 9.3
2017-Apr-15 09:30N 68°09' E 015°04'5 9.4
2017-Apr-15 09:00N 68°05' E 015°11'5 9.9
2017-Apr-15 08:30N 68°00' E 015°18'4 8.8
2017-Apr-15 08:00N 67°57' E 015°26'5 9.8
2017-Apr-15 07:30N 67°58' E 015°39'4 7.5
2017-Apr-15 07:00N 67°58' E 015°48'0 0.0
2017-Apr-15 06:30N 67°58' E 015°48'0 0.0
2017-Apr-15 06:00N 67°58' E 015°48'0 0.0
2017-Apr-15 05:30N 67°58' E 015°48'3 5.4
2017-Apr-15 05:00N 67°58' E 015°41'4 8.9
2017-Apr-15 04:30N 67°57' E 015°30'4 8.4
2017-Apr-15 03:59N 67°59' E 015°19'5 9.9
2017-Apr-15 03:30N 68°04' E 015°13'4 9.2
2017-Apr-15 03:01N 68°07' E 015°07'5 9.4
2017-Apr-15 02:30N 68°11' E 014°60'4 8.8
2017-Apr-15 02:01N 68°16' E 014°57'5 9.6
2017-Apr-15 01:30N 68°20' E 015°01'5 9.2
2017-Apr-15 01:00N 68°24' E 015°07'4 8.0
2017-Apr-15 00:30N 68°28' E 015°12'4 8.2
2017-Apr-15 00:00N 68°32' E 015°10'5 9.5
2017-Apr-14 23:30N 68°36' E 015°15'5 9.7
2017-Apr-14 23:00N 68°40' E 015°24'5 9.6
2017-Apr-14 22:30N 68°44' E 015°25'5 9.6
2017-Apr-14 22:00N 68°49' E 015°25'5 9.3
2017-Apr-14 21:30N 68°54' E 015°22'2 3.8
2017-Apr-14 21:00N 68°54' E 015°17'0 0.0
2017-Apr-14 20:30N 68°54' E 015°17'3 6.8
2017-Apr-14 20:00N 68°52' E 015°25'5 9.6
2017-Apr-14 19:30N 68°47' E 015°26'5 9.4
2017-Apr-14 19:00N 68°43' E 015°26'4 8.6
2017-Apr-14 18:30N 68°39' E 015°21'5 9.2
2017-Apr-14 18:00N 68°35' E 015°13'4 8.7
2017-Apr-14 17:30N 68°31' E 015°10'4 8.1
2017-Apr-14 17:00N 68°27' E 015°11'5 9.2
2017-Apr-14 16:30N 68°23' E 015°05'5 9.0
2017-Apr-14 16:00N 68°19' E 014°59'4 9.1
2017-Apr-14 15:30N 68°15' E 014°57'4 8.8
2017-Apr-14 15:00N 68°11' E 015°01'9 9.4
2017-Apr-14 14:00N 68°03' E 015°15'5 9.7
2017-Apr-14 13:30N 67°58' E 015°21'4 8.3
2017-Apr-14 13:00N 67°58' E 015°32'5 9.4
2017-Apr-14 12:30N 67°59' E 015°44'2 3.5
2017-Apr-14 12:00N 67°58' E 015°48'0 0.0
2017-Apr-14 11:30N 67°58' E 015°48'0 0.0
2017-Apr-14 11:00N 67°58' E 015°48'0 0.1
2017-Apr-14 10:30N 67°58' E 015°48'0 0.0
2017-Apr-14 10:00N 67°58' E 015°48'0 0.0
2017-Apr-14 09:30N 67°58' E 015°48'0 0.0
2017-Apr-14 09:00N 67°58' E 015°48'4 7.9
2017-Apr-14 08:31N 67°58' E 015°38'5 9.9
2017-Apr-14 08:00N 67°57' E 015°25'4 8.6
2017-Apr-14 07:30N 68°01' E 015°20'0 0.1
2017-Apr-14 07:00N 68°01' E 015°20'0 0.0
2017-Apr-14 06:30N 68°01' E 015°20'0 0.0
2017-Apr-14 06:01N 68°01' E 015°20'0 0.0
2017-Apr-14 05:30N 68°01' E 015°20'0 0.0
2017-Apr-14 05:00N 68°01' E 015°20'0 0.0
2017-Apr-14 04:30N 68°01' E 015°20'0 0.0
2017-Apr-14 04:00N 68°01' E 015°20'0 0.0
2017-Apr-14 03:30N 68°01' E 015°20'0 0.0
2017-Apr-14 03:00N 68°01' E 015°20'0 0.0
2017-Apr-14 02:31N 68°01' E 015°20'0 0.0
2017-Apr-14 02:00N 68°01' E 015°20'0 0.0
2017-Apr-14 01:30N 68°01' E 015°20'0 0.0
2017-Apr-14 01:00N 68°01' E 015°20'0 0.0
2017-Apr-14 00:30N 68°01' E 015°20'0 0.0
2017-Apr-14 00:00N 68°01' E 015°20'0 0.0
2017-Apr-13 23:30N 68°01' E 015°20'0 0.0
2017-Apr-13 23:00N 68°01' E 015°20'0 0.0
2017-Apr-13 22:30N 68°01' E 015°20'0 0.0
2017-Apr-13 22:00N 68°01' E 015°20'0 0.0
2017-Apr-13 21:30N 68°01' E 015°20'0 0.0
2017-Apr-13 21:00N 68°01' E 015°20'0 0.0
2017-Apr-13 20:30N 68°01' E 015°20'0 0.0
2017-Apr-13 20:00N 68°01' E 015°20'0 0.0
2017-Apr-13 19:30N 68°01' E 015°20'0 0.0
2017-Apr-13 19:01N 68°01' E 015°20'0 0.0
2017-Apr-13 18:30N 68°01' E 015°20'0 0.0
2017-Apr-13 18:00N 68°01' E 015°20'0 0.0
2017-Apr-13 17:30N 68°01' E 015°20'0 0.0
2017-Apr-13 17:00N 68°01' E 015°20'0 0.0
2017-Apr-13 16:30N 68°01' E 015°20'0 0.0
2017-Apr-13 16:00N 68°01' E 015°20'0 0.0
2017-Apr-13 15:31N 68°01' E 015°20'0 0.0
2017-Apr-13 15:00N 68°01' E 015°20'0 0.0
2017-Apr-13 14:00N 68°01' E 015°20'0 0.0
2017-Apr-13 13:30N 68°01' E 015°20'0 0.0
2017-Apr-13 13:00N 68°01' E 015°20'0 0.0
2017-Apr-13 12:30N 68°01' E 015°20'0 0.0
2017-Apr-13 12:00N 68°01' E 015°20'0 0.0
2017-Apr-13 11:30N 68°01' E 015°20'  
Track history (hours):
 
Tides and Currents Weather Stations Pressure Air Temp Water Temp Dewpoint Dewpoint Depression Visibility Wind Speed Wind Dir Waves Ship Positions

Veidnes

Last reported at 2017-Apr-23 11:23 UTC. Time now 2017-Apr-23 11:50 UTC.
Position N 68°01' E 015°20'.

Length 51 m; draft 5 m.

Type: Cargo ship. MMSI: 259237000.

Date/timePositionNaut miles runAvg speedWind from/ knotsBaromVisibWave heightAir tempDewpointWater temp
2017-Apr-23 11:23N 68°01' E 015°20'0 0.0
2017-Apr-23 10:59N 68°01' E 015°20'0 0.0
2017-Apr-23 10:29N 68°01' E 015°20'0 0.0
2017-Apr-23 09:56N 68°01' E 015°20'0 0.0
2017-Apr-23 09:29N 68°01' E 015°20'0 0.0
2017-Apr-23 08:59N 68°01' E 015°20'0 0.0
2017-Apr-23 08:29N 68°01' E 015°20'0 0.0
2017-Apr-23 07:59N 68°01' E 015°20'0 0.0
2017-Apr-23 07:29N 68°01' E 015°20'0 0.0
2017-Apr-23 06:59N 68°01' E 015°20'0 0.0
2017-Apr-23 06:29N 68°01' E 015°20'0 0.0
2017-Apr-23 05:59N 68°01' E 015°20'0 0.0
2017-Apr-23 05:29N 68°01' E 015°20'0 0.0
2017-Apr-23 04:59N 68°01' E 015°20'0 0.0
2017-Apr-23 04:29N 68°01' E 015°20'0 0.0
2017-Apr-23 03:59N 68°01' E 015°20'0 0.0
2017-Apr-23 03:29N 68°01' E 015°20'0 0.0
2017-Apr-23 02:59N 68°01' E 015°20'0 0.0
2017-Apr-23 02:29N 68°01' E 015°20'0 0.0
2017-Apr-23 01:59N 68°01' E 015°20'0 0.0
2017-Apr-23 01:26N 68°01' E 015°20'0 0.0
2017-Apr-23 00:59N 68°01' E 015°20'0 0.0
2017-Apr-23 00:29N 68°01' E 015°20'0 0.0
2017-Apr-22 23:59N 68°01' E 015°20'0 0.0
2017-Apr-22 23:29N 68°01' E 015°20'0 0.0
2017-Apr-22 22:56N 68°01' E 015°20'0 0.0
2017-Apr-22 22:29N 68°01' E 015°20'0 0.0
2017-Apr-22 21:59N 68°01' E 015°20'0 0.0
2017-Apr-22 21:29N 68°01' E 015°20'0 0.0
2017-Apr-22 20:58N 68°01' E 015°20'0 0.0
2017-Apr-22 20:28N 68°01' E 015°20'0 0.0
2017-Apr-22 19:58N 68°01' E 015°20'0 0.0
2017-Apr-22 19:28N 68°01' E 015°20'0 0.0
2017-Apr-22 18:58N 68°01' E 015°20'0 0.0
2017-Apr-22 18:28N 68°01' E 015°20'0 0.0
2017-Apr-22 17:58N 68°01' E 015°20'0 0.0
2017-Apr-22 17:28N 68°01' E 015°20'0 0.0
2017-Apr-22 16:58N 68°01' E 015°20'0 0.0
2017-Apr-22 16:28N 68°01' E 015°20'0 0.0
2017-Apr-22 15:58N 68°01' E 015°20'0 0.0
2017-Apr-22 15:28N 68°01' E 015°20'0 0.0
2017-Apr-22 14:55N 68°01' E 015°20'0 0.0
2017-Apr-22 14:28N 68°01' E 015°20'0 0.0
2017-Apr-22 13:28N 68°01' E 015°20'0 0.0
2017-Apr-22 12:52N 68°01' E 015°20'0 0.0
2017-Apr-22 12:28N 68°01' E 015°20'0 0.0
2017-Apr-22 11:58N 68°01' E 015°20'0 0.0
2017-Apr-22 11:28N 68°01' E 015°20'0 0.0
2017-Apr-22 10:52N 68°01' E 015°20'0 0.0
2017-Apr-22 10:28N 68°01' E 015°20'0 0.0
2017-Apr-22 10:00N 68°01' E 015°20'2 5.0
2017-Apr-22 09:30N 67°58' E 015°19'1 1.6
2017-Apr-22 09:00N 67°58' E 015°21'2 4.6
2017-Apr-22 08:30N 68°00' E 015°18'3 6.0
2017-Apr-22 08:00N 68°03' E 015°14'4 7.3
2017-Apr-22 07:30N 68°06' E 015°09'3 7.1
2017-Apr-22 07:00N 68°09' E 015°04'5 9.2
2017-Apr-22 06:30N 68°13' E 014°57'5 9.3
2017-Apr-22 06:01N 68°17' E 014°58'5 9.3
2017-Apr-22 05:30N 68°22' E 015°03'5 9.3
2017-Apr-22 04:59N 68°26' E 015°09'4 8.4
2017-Apr-22 04:30N 68°30' E 015°11'510.0
2017-Apr-22 04:00N 68°35' E 015°13'610.9
2017-Apr-22 03:30N 68°39' E 015°23'510.7
2017-Apr-22 03:00N 68°44' E 015°25'611.4
2017-Apr-22 02:30N 68°50' E 015°26'510.0
2017-Apr-22 02:00N 68°54' E 015°17'0 0.1
2017-Apr-22 01:30N 68°54' E 015°17'1 2.9
2017-Apr-22 01:00N 68°53' E 015°20'4 7.6
2017-Apr-22 00:29N 68°50' E 015°26'4 8.5
2017-Apr-21 23:59N 68°46' E 015°25'4 7.5
2017-Apr-21 23:30N 68°42' E 015°26'4 7.7
2017-Apr-21 23:00N 68°38' E 015°21'4 8.4
2017-Apr-21 22:30N 68°35' E 015°13'4 8.2
2017-Apr-21 22:00N 68°31' E 015°10'4 7.8
2017-Apr-21 21:30N 68°28' E 015°12'5 9.4
2017-Apr-21 21:00N 68°23' E 015°05'4 8.5
2017-Apr-21 20:30N 68°20' E 014°60'4 7.9
2017-Apr-21 20:01N 68°16' E 014°58'4 8.0
2017-Apr-21 19:30N 68°12' E 014°59'4 8.7
2017-Apr-21 19:00N 68°08' E 015°05'4 8.8
2017-Apr-21 18:31N 68°05' E 015°11'4 8.3
2017-Apr-21 18:01N 68°01' E 015°17'4 8.1
2017-Apr-21 17:30N 67°57' E 015°23'4 8.1
2017-Apr-21 17:00N 67°58' E 015°33'4 8.6
2017-Apr-21 16:30N 67°58' E 015°44'2 3.3
2017-Apr-21 16:00N 67°58' E 015°48'0 0.0
2017-Apr-21 15:30N 67°58' E 015°48'0 0.0
2017-Apr-21 15:00N 67°58' E 015°48'3 5.3
2017-Apr-21 14:30N 67°58' E 015°41'8 7.9
2017-Apr-21 13:30N 67°60' E 015°21'1 2.0
2017-Apr-21 12:58N 68°01' E 015°20'0 0.0
2017-Apr-21 12:28N 68°01' E 015°20'0 0.0
2017-Apr-21 11:58N 68°01' E 015°20'0 0.0
2017-Apr-21 11:28N 68°01' E 015°20'0 0.0
2017-Apr-21 10:58N 68°01' E 015°20'0 0.0
2017-Apr-21 10:28N 68°01' E 015°20'0 0.0
2017-Apr-21 09:58N 68°01' E 015°20'0 0.0
2017-Apr-21 09:28N 68°01' E 015°20'0 0.0
2017-Apr-21 08:55N 68°01' E 015°20'0 0.0
2017-Apr-21 08:28N 68°01' E 015°20'0 0.0
2017-Apr-21 07:55N 68°01' E 015°20'0 0.0
2017-Apr-21 07:28N 68°01' E 015°20'0 0.0
2017-Apr-21 06:58N 68°01' E 015°20'0 0.0
2017-Apr-21 06:28N 68°01' E 015°20'0 0.0
2017-Apr-21 05:52N 68°01' E 015°20'0 0.0
2017-Apr-21 05:28N 68°01' E 015°20'0 0.0
2017-Apr-21 04:52N 68°01' E 015°20'0 0.0
2017-Apr-21 04:31N 68°01' E 015°20'0 0.0
2017-Apr-21 04:01N 68°01' E 015°20'0 0.0
2017-Apr-21 03:30N 68°01' E 015°20'0 0.0
2017-Apr-21 03:00N 68°01' E 015°20'0 0.0
2017-Apr-21 02:27N 68°01' E 015°20'0 0.0
2017-Apr-21 02:00N 68°01' E 015°20'0 0.0
2017-Apr-21 01:30N 68°01' E 015°20'0 0.0
2017-Apr-21 01:00N 68°01' E 015°20'0 0.0
2017-Apr-21 00:27N 68°01' E 015°20'0 0.0
2017-Apr-21 00:00N 68°01' E 015°20'0 0.0
2017-Apr-20 23:30N 68°01' E 015°20'0 0.0
2017-Apr-20 23:00N 68°01' E 015°20'0 0.0
2017-Apr-20 22:30N 68°01' E 015°20'0 0.0
2017-Apr-20 22:00N 68°01' E 015°20'0 0.0
2017-Apr-20 21:27N 68°01' E 015°20'0 0.0
2017-Apr-20 20:57N 68°01' E 015°20'0 0.0
2017-Apr-20 20:30N 68°01' E 015°20'0 0.0
2017-Apr-20 20:00N 68°01' E 015°20'0 0.0
2017-Apr-20 19:30N 68°01' E 015°20'0 0.1
2017-Apr-20 19:00N 68°01' E 015°20'4 7.9
2017-Apr-20 18:30N 67°57' E 015°23'4 8.0
2017-Apr-20 18:00N 67°58' E 015°34'4 8.2
2017-Apr-20 17:30N 67°58' E 015°45'2 3.0
2017-Apr-20 17:00N 67°58' E 015°48'0 0.0
2017-Apr-20 16:30N 67°58' E 015°48'0 0.1
2017-Apr-20 16:00N 67°58' E 015°48'0 0.0
2017-Apr-20 15:30N 67°58' E 015°48'2 3.1
2017-Apr-20 15:00N 67°58' E 015°45'1110.8
2017-Apr-20 14:00N 67°55' E 015°17'2 4.9
2017-Apr-20 13:30N 67°54' E 015°11'0 0.0
2017-Apr-20 13:01N 67°54' E 015°11'3 5.9
2017-Apr-20 12:30N 67°55' E 015°18'5 9.7
2017-Apr-20 12:00N 68°00' E 015°21'1 1.6
2017-Apr-20 11:30N 68°01' E 015°20'0 0.0
2017-Apr-20 11:00N 68°01' E 015°20'0 0.0
2017-Apr-20 10:21N 68°01' E 015°20'0 0.0
2017-Apr-20 10:00N 68°01' E 015°20'0 0.0
2017-Apr-20 09:27N 68°01' E 015°20'0 0.0
2017-Apr-20 09:00N 68°01' E 015°20'0 0.0
2017-Apr-20 08:30N 68°01' E 015°20'0 0.0
2017-Apr-20 08:00N 68°01' E 015°20'0 0.0
2017-Apr-20 07:30N 68°01' E 015°20'0 0.0
2017-Apr-20 07:00N 68°01' E 015°20'0 0.0
2017-Apr-20 06:30N 68°01' E 015°20'0 0.0
2017-Apr-20 06:00N 68°01' E 015°20'0 0.0
2017-Apr-20 05:24N 68°01' E 015°20'0 0.0
2017-Apr-20 04:54N 68°01' E 015°20'0 0.0
2017-Apr-20 04:30N 68°01' E 015°20'0 0.0
2017-Apr-20 03:54N 68°01' E 015°20'0 0.0
2017-Apr-20 03:30N 68°01' E 015°20'0 0.0
2017-Apr-20 03:00N 68°01' E 015°20'0 0.0
2017-Apr-20 02:30N 68°01' E 015°20'0 0.0
2017-Apr-20 02:00N 68°01' E 015°20'0 0.0
2017-Apr-20 01:30N 68°01' E 015°20'0 0.0
2017-Apr-20 01:00N 68°01' E 015°20'0 0.0
2017-Apr-20 00:30N 68°01' E 015°20'0 0.0
2017-Apr-20 00:00N 68°01' E 015°20'0 0.0
2017-Apr-19 23:30N 68°01' E 015°20'0 0.0
2017-Apr-19 23:00N 68°01' E 015°20'0 0.0
2017-Apr-19 22:30N 68°01' E 015°20'0 0.0
2017-Apr-19 22:00N 68°01' E 015°20'0 0.0
2017-Apr-19 21:30N 68°01' E 015°20'0 0.0
2017-Apr-19 20:59N 68°01' E 015°20'0 0.0
2017-Apr-19 20:30N 68°01' E 015°20'0 0.0
2017-Apr-19 20:00N 68°01' E 015°20'0 0.0
2017-Apr-19 19:30N 68°01' E 015°20'0 0.0
2017-Apr-19 19:00N 68°01' E 015°20'0 0.0
2017-Apr-19 18:30N 68°01' E 015°20'0 0.0
2017-Apr-19 18:00N 68°01' E 015°20'0 0.0
2017-Apr-19 17:30N 68°01' E 015°20'2 3.5
2017-Apr-19 17:00N 67°59' E 015°21'3 6.9
2017-Apr-19 16:30N 67°57' E 015°29'4 8.7
2017-Apr-19 16:00N 67°58' E 015°40'3 6.4
2017-Apr-19 15:30N 67°58' E 015°48'0 0.0
2017-Apr-19 15:00N 67°58' E 015°48'0 0.0
2017-Apr-19 14:29N 67°58' E 015°48'9 9.4
2017-Apr-19 13:29N 67°57' E 015°23'4 8.1
2017-Apr-19 12:59N 68°01' E 015°20'0 0.0
2017-Apr-19 12:26N 68°01' E 015°20'0 0.0
2017-Apr-19 11:59N 68°01' E 015°20'0 0.0
2017-Apr-19 11:29N 68°01' E 015°20'0 0.0
2017-Apr-19 10:59N 68°01' E 015°20'0 0.0
2017-Apr-19 10:29N 68°01' E 015°20'0 0.0
2017-Apr-19 09:59N 68°01' E 015°20'0 0.0
2017-Apr-19 09:29N 68°01' E 015°20'0 0.0
2017-Apr-19 08:59N 68°01' E 015°20'0 0.0
2017-Apr-19 08:29N 68°01' E 015°20'0 0.0
2017-Apr-19 07:59N 68°01' E 015°20'0 0.0
2017-Apr-19 07:29N 68°01' E 015°20'0 0.0
2017-Apr-19 06:49N 68°01' E 015°20'0 0.0
2017-Apr-19 06:29N 68°01' E 015°20'0 0.0
2017-Apr-19 05:58N 68°01' E 015°20'0 0.0
2017-Apr-19 05:28N 68°01' E 015°20'0 0.0
2017-Apr-19 04:58N 68°01' E 015°20'0 0.0
2017-Apr-19 04:28N 68°01' E 015°20'0 0.0
2017-Apr-19 03:58N 68°01' E 015°20'0 0.0
2017-Apr-19 03:28N 68°01' E 015°20'0 0.0
2017-Apr-19 02:58N 68°01' E 015°20'0 0.0
2017-Apr-19 02:28N 68°01' E 015°20'0 0.0
2017-Apr-19 01:55N 68°01' E 015°20'0 0.0
2017-Apr-19 01:28N 68°01' E 015°20'0 0.0
2017-Apr-19 00:58N 68°01' E 015°20'0 0.0
2017-Apr-19 00:25N 68°01' E 015°20'0 0.0
2017-Apr-18 23:58N 68°01' E 015°20'0 0.0
2017-Apr-18 23:22N 68°01' E 015°20'0 0.0
2017-Apr-18 22:58N 68°01' E 015°20'0 0.0
2017-Apr-18 22:28N 68°01' E 015°20'0 0.0
2017-Apr-18 21:58N 68°01' E 015°20'0 0.0
2017-Apr-18 21:28N 68°01' E 015°20'0 0.0
2017-Apr-18 20:58N 68°01' E 015°20'0 0.0
2017-Apr-18 20:28N 68°01' E 015°20'0 0.0
2017-Apr-18 19:58N 68°01' E 015°20'0 0.0
2017-Apr-18 19:25N 68°01' E 015°20'0 0.0
2017-Apr-18 18:58N 68°01' E 015°20'1 1.8
2017-Apr-18 18:30N 68°00' E 015°21'4 7.1
2017-Apr-18 18:00N 67°57' E 015°25'4 8.0
2017-Apr-18 17:30N 67°58' E 015°36'4 7.9
2017-Apr-18 17:00N 67°58' E 015°46'1 2.2
2017-Apr-18 16:30N 67°58' E 015°48'0 0.0
2017-Apr-18 16:00N 67°58' E 015°48'1 2.2
2017-Apr-18 15:29N 67°58' E 015°46'510.8
2017-Apr-18 15:00N 67°57' E 015°32'611.2
2017-Apr-18 14:30N 67°55' E 015°18'3 2.9
2017-Apr-18 13:30N 67°54' E 015°11'2 3.6
2017-Apr-18 13:00N 67°55' E 015°16'5 9.3
2017-Apr-18 12:30N 67°59' E 015°21'2 4.2
2017-Apr-18 12:00N 68°01' E 015°20'0 0.0
2017-Apr-18 11:30N 68°01' E 015°20'0 0.0
2017-Apr-18 11:00N 68°01' E 015°20'0 0.0
2017-Apr-18 10:30N 68°01' E 015°20'0 0.0
2017-Apr-18 10:00N 68°01' E 015°20'0 0.0
2017-Apr-18 09:30N 68°01' E 015°20'0 0.0
2017-Apr-18 08:57N 68°01' E 015°20'0 0.0
2017-Apr-18 08:30N 68°01' E 015°20'0 0.0
2017-Apr-18 08:00N 68°01' E 015°20'0 0.0
2017-Apr-18 07:27N 68°01' E 015°20'0 0.0
2017-Apr-18 06:54N 68°01' E 015°20'0 0.0
2017-Apr-18 06:30N 68°01' E 015°20'0 0.0
2017-Apr-18 06:00N 68°01' E 015°20'0 0.0
2017-Apr-18 05:21N 68°01' E 015°20'0 0.0
2017-Apr-18 05:00N 68°01' E 015°20'0 0.0
2017-Apr-18 04:30N 68°01' E 015°20'0 0.0
2017-Apr-18 04:00N 68°01' E 015°20'0 0.0
2017-Apr-18 03:30N 68°01' E 015°20'0 0.0
2017-Apr-18 03:00N 68°01' E 015°20'0 0.0
2017-Apr-18 02:30N 68°01' E 015°20'0 0.0
2017-Apr-18 02:00N 68°01' E 015°20'0 0.0
2017-Apr-18 01:30N 68°01' E 015°20'0 0.0
2017-Apr-18 01:00N 68°01' E 015°20'0 0.0
2017-Apr-18 00:30N 68°01' E 015°20'0 0.0
2017-Apr-18 00:00N 68°01' E 015°20'0 0.0
2017-Apr-17 23:30N 68°01' E 015°20'0 0.0
2017-Apr-17 23:00N 68°01' E 015°20'0 0.0
2017-Apr-17 22:30N 68°01' E 015°20'0 0.0
2017-Apr-17 22:00N 68°01' E 015°20'0 0.0
2017-Apr-17 21:24N 68°01' E 015°20'0 0.0
2017-Apr-17 21:00N 68°01' E 015°20'0 0.0
2017-Apr-17 20:30N 68°01' E 015°20'0 0.0
2017-Apr-17 20:00N 68°01' E 015°20'0 0.0
2017-Apr-17 19:30N 68°01' E 015°20'0 0.0
2017-Apr-17 18:54N 68°01' E 015°20'0 0.0
2017-Apr-17 18:30N 68°01' E 015°20'0 0.0
2017-Apr-17 17:51N 68°01' E 015°20'0 0.0
2017-Apr-17 17:30N 68°01' E 015°20'0 0.0
2017-Apr-17 17:00N 68°01' E 015°20'3 6.2
2017-Apr-17 16:30N 67°58' E 015°22'4 7.9
2017-Apr-17 15:59N 67°58' E 015°33'4 9.0
2017-Apr-17 15:30N 67°58' E 015°45'2 3.1
2017-Apr-17 14:59N 67°58' E 015°48'0 0.0
2017-Apr-17 14:30N 67°58' E 015°48'6 6.4
2017-Apr-17 13:30N 67°58' E 015°31'4 8.9
2017-Apr-17 13:01N 67°59' E 015°20'5 9.4
2017-Apr-17 12:30N 68°03' E 015°14'5 9.4
2017-Apr-17 12:00N 68°07' E 015°07'5 9.4
2017-Apr-17 11:30N 68°11' E 015°00'4 8.8
2017-Apr-17 11:00N 68°15' E 014°57'5 9.3
2017-Apr-17 10:30N 68°20' E 014°60'5 9.5
2017-Apr-17 10:00N 68°24' E 015°06'510.0
2017-Apr-17 09:30N 68°28' E 015°12'4 8.3
2017-Apr-17 09:00N 68°32' E 015°10'5 9.3
2017-Apr-17 08:30N 68°36' E 015°16'5 9.6
2017-Apr-17 08:00N 68°40' E 015°24'2 3.9
2017-Apr-17 07:30N 68°42' E 015°25'0 0.0
2017-Apr-17 07:00N 68°42' E 015°25'0 0.0
2017-Apr-17 06:30N 68°42' E 015°25'0 0.0
2017-Apr-17 06:00N 68°42' E 015°25'0 0.0
2017-Apr-17 05:30N 68°42' E 015°25'0 0.0
2017-Apr-17 05:00N 68°42' E 015°25'1 1.6
2017-Apr-17 04:30N 68°43' E 015°26'510.1
2017-Apr-17 04:00N 68°48' E 015°26'510.0
2017-Apr-17 03:30N 68°52' E 015°23'3 5.2
2017-Apr-17 03:00N 68°54' E 015°17'0 0.3
2017-Apr-17 02:30N 68°54' E 015°18'4 7.6
2017-Apr-17 02:00N 68°51' E 015°25'5 9.2
2017-Apr-17 01:30N 68°47' E 015°26'5 8.9
2017-Apr-17 00:59N 68°42' E 015°26'4 8.2
2017-Apr-17 00:30N 68°39' E 015°21'4 8.7
2017-Apr-17 00:00N 68°35' E 015°13'4 8.4
2017-Apr-16 23:30N 68°31' E 015°10'4 7.7
2017-Apr-16 23:00N 68°28' E 015°12'4 8.0
2017-Apr-16 22:30N 68°24' E 015°06'4 8.4
2017-Apr-16 22:00N 68°20' E 015°01'4 8.1
2017-Apr-16 21:30N 68°16' E 014°58'4 8.3
2017-Apr-16 21:00N 68°12' E 014°58'4 8.7
2017-Apr-16 20:30N 68°09' E 015°04'4 8.8
2017-Apr-16 20:00N 68°05' E 015°10'4 8.8
2017-Apr-16 19:30N 68°01' E 015°17'4 8.8
2017-Apr-16 19:01N 67°58' E 015°23'4 8.5
2017-Apr-16 18:30N 67°58' E 015°34'4 9.0
2017-Apr-16 18:00N 67°58' E 015°46'1 2.4
2017-Apr-16 17:31N 67°58' E 015°48'0 0.0
2017-Apr-16 17:00N 67°58' E 015°48'0 0.0
2017-Apr-16 16:30N 67°58' E 015°48'4 7.6
2017-Apr-16 16:00N 67°58' E 015°38'510.8
2017-Apr-16 15:30N 67°57' E 015°24'510.8
2017-Apr-16 15:00N 68°02' E 015°16'1111.0
2017-Apr-16 14:00N 68°11' E 015°00'510.2
2017-Apr-16 13:30N 68°16' E 014°57'510.5
2017-Apr-16 13:00N 68°21' E 015°02'510.4
2017-Apr-16 12:30N 68°25' E 015°08'5 9.5
2017-Apr-16 12:00N 68°30' E 015°11'510.5
2017-Apr-16 11:30N 68°35' E 015°13'510.9
2017-Apr-16 11:00N 68°39' E 015°23'5 9.7
2017-Apr-16 10:30N 68°44' E 015°25'510.8
2017-Apr-16 10:00N 68°49' E 015°26'510.0
2017-Apr-16 09:30N 68°54' E 015°19'1 1.2
2017-Apr-16 09:00N 68°54' E 015°17'1 1.0
2017-Apr-16 08:30N 68°54' E 015°19'4 7.9
2017-Apr-16 08:00N 68°51' E 015°25'5 9.1
2017-Apr-16 07:30N 68°46' E 015°26'5 9.8
2017-Apr-16 07:00N 68°41' E 015°26'4 8.7
2017-Apr-16 06:30N 68°38' E 015°19'4 8.9
2017-Apr-16 06:00N 68°35' E 015°12'4 8.2
2017-Apr-16 05:30N 68°30' E 015°10'4 7.7
2017-Apr-16 05:00N 68°27' E 015°10'5 9.5
2017-Apr-16 04:30N 68°22' E 015°04'4 8.7
2017-Apr-16 04:00N 68°19' E 014°58'4 8.6
2017-Apr-16 03:30N 68°14' E 014°57'4 8.3
2017-Apr-16 03:00N 68°11' E 015°01'4 8.7
2017-Apr-16 02:30N 68°07' E 015°07'4 8.6
2017-Apr-16 02:01N 68°03' E 015°13'5 9.0
2017-Apr-16 01:30N 67°59' E 015°19'4 7.7
2017-Apr-16 01:00N 67°57' E 015°28'4 9.0
2017-Apr-16 00:30N 67°58' E 015°39'3 6.7
2017-Apr-16 00:00N 67°58' E 015°48'0 0.0
2017-Apr-15 23:30N 67°58' E 015°48'0 0.0
2017-Apr-15 22:59N 67°58' E 015°48'2 3.6
2017-Apr-15 22:29N 67°58' E 015°44'510.3
2017-Apr-15 22:00N 67°57' E 015°31'5 9.1
2017-Apr-15 21:30N 67°59' E 015°19'510.5
2017-Apr-15 21:01N 68°04' E 015°13'510.8
2017-Apr-15 20:31N 68°08' E 015°05'610.7
2017-Apr-15 20:00N 68°13' E 014°57'510.9
2017-Apr-15 19:30N 68°18' E 014°58'511.0
2017-Apr-15 19:00N 68°23' E 015°05'611.6
2017-Apr-15 18:30N 68°28' E 015°12'510.0
2017-Apr-15 18:00N 68°33' E 015°10'611.0
2017-Apr-15 17:30N 68°38' E 015°19'510.4
2017-Apr-15 17:00N 68°42' E 015°26'510.7
2017-Apr-15 16:30N 68°48' E 015°25'510.7
2017-Apr-15 16:00N 68°53' E 015°23'2 4.8
2017-Apr-15 15:30N 68°54' E 015°17'0 0.4
2017-Apr-15 15:00N 68°54' E 015°18'8 8.2
2017-Apr-15 14:00N 68°46' E 015°26'510.3
2017-Apr-15 13:30N 68°41' E 015°26'5 9.3
2017-Apr-15 13:00N 68°37' E 015°19'5 9.3
2017-Apr-15 12:30N 68°34' E 015°11'4 8.8
2017-Apr-15 12:00N 68°29' E 015°12'4 8.6
2017-Apr-15 11:30N 68°25' E 015°08'5 9.1
2017-Apr-15 11:00N 68°21' E 015°03'5 9.0
2017-Apr-15 10:29N 68°17' E 014°58'5 9.2
2017-Apr-15 09:59N 68°12' E 014°58'5 9.3
2017-Apr-15 09:30N 68°09' E 015°04'5 9.4
2017-Apr-15 09:00N 68°05' E 015°11'5 9.9
2017-Apr-15 08:30N 68°00' E 015°18'4 8.8
2017-Apr-15 08:00N 67°57' E 015°26'5 9.8
2017-Apr-15 07:30N 67°58' E 015°39'4 7.5
2017-Apr-15 07:00N 67°58' E 015°48'0 0.0
2017-Apr-15 06:30N 67°58' E 015°48'0 0.0
2017-Apr-15 06:00N 67°58' E 015°48'0 0.0
2017-Apr-15 05:30N 67°58' E 015°48'3 5.4
2017-Apr-15 05:00N 67°58' E 015°41'4 8.9
2017-Apr-15 04:30N 67°57' E 015°30'4 8.4
2017-Apr-15 03:59N 67°59' E 015°19'5 9.9
2017-Apr-15 03:30N 68°04' E 015°13'4 9.2
2017-Apr-15 03:01N 68°07' E 015°07'5 9.4
2017-Apr-15 02:30N 68°11' E 014°60'4 8.8
2017-Apr-15 02:01N 68°16' E 014°57'5 9.6
2017-Apr-15 01:30N 68°20' E 015°01'5 9.2
2017-Apr-15 01:00N 68°24' E 015°07'4 8.0
2017-Apr-15 00:30N 68°28' E 015°12'4 8.2
2017-Apr-15 00:00N 68°32' E 015°10'5 9.5
2017-Apr-14 23:30N 68°36' E 015°15'5 9.7
2017-Apr-14 23:00N 68°40' E 015°24'5 9.6
2017-Apr-14 22:30N 68°44' E 015°25'5 9.6
2017-Apr-14 22:00N 68°49' E 015°25'5 9.3
2017-Apr-14 21:30N 68°54' E 015°22'2 3.8
2017-Apr-14 21:00N 68°54' E 015°17'0 0.0
2017-Apr-14 20:30N 68°54' E 015°17'3 6.8
2017-Apr-14 20:00N 68°52' E 015°25'5 9.6
2017-Apr-14 19:30N 68°47' E 015°26'5 9.4
2017-Apr-14 19:00N 68°43' E 015°26'4 8.6
2017-Apr-14 18:30N 68°39' E 015°21'5 9.2
2017-Apr-14 18:00N 68°35' E 015°13'4 8.7
2017-Apr-14 17:30N 68°31' E 015°10'4 8.1
2017-Apr-14 17:00N 68°27' E 015°11'5 9.2
2017-Apr-14 16:30N 68°23' E 015°05'5 9.0
2017-Apr-14 16:00N 68°19' E 014°59'4 9.1
2017-Apr-14 15:30N 68°15' E 014°57'4 8.8
2017-Apr-14 15:00N 68°11' E 015°01'9 9.4
2017-Apr-14 14:00N 68°03' E 015°15'5 9.7
2017-Apr-14 13:30N 67°58' E 015°21'4 8.3
2017-Apr-14 13:00N 67°58' E 015°32'5 9.4
2017-Apr-14 12:30N 67°59' E 015°44'2 3.5
2017-Apr-14 12:00N 67°58' E 015°48'0 0.0
2017-Apr-14 11:30N 67°58' E 015°48'0 0.0
2017-Apr-14 11:00N 67°58' E 015°48'0 0.1
2017-Apr-14 10:30N 67°58' E 015°48'0 0.0
2017-Apr-14 10:00N 67°58' E 015°48'0 0.0
2017-Apr-14 09:30N 67°58' E 015°48'0 0.0
2017-Apr-14 09:00N 67°58' E 015°48'4 7.9
2017-Apr-14 08:31N 67°58' E 015°38'5 9.9
2017-Apr-14 08:00N 67°57' E 015°25'4 8.6
2017-Apr-14 07:30N 68°01' E 015°20'0 0.1
2017-Apr-14 07:00N 68°01' E 015°20'0 0.0
2017-Apr-14 06:30N 68°01' E 015°20'0 0.0
2017-Apr-14 06:01N 68°01' E 015°20'0 0.0
2017-Apr-14 05:30N 68°01' E 015°20'0 0.0
2017-Apr-14 05:00N 68°01' E 015°20'0 0.0
2017-Apr-14 04:30N 68°01' E 015°20'0 0.0
2017-Apr-14 04:00N 68°01' E 015°20'0 0.0
2017-Apr-14 03:30N 68°01' E 015°20'0 0.0
2017-Apr-14 03:00N 68°01' E 015°20'0 0.0
2017-Apr-14 02:31N 68°01' E 015°20'0 0.0
2017-Apr-14 02:00N 68°01' E 015°20'0 0.0
2017-Apr-14 01:30N 68°01' E 015°20'0 0.0
2017-Apr-14 01:00N 68°01' E 015°20'0 0.0
2017-Apr-14 00:30N 68°01' E 015°20'0 0.0
2017-Apr-14 00:00N 68°01' E 015°20'0 0.0
2017-Apr-13 23:30N 68°01' E 015°20'0 0.0
2017-Apr-13 23:00N 68°01' E 015°20'0 0.0
2017-Apr-13 22:30N 68°01' E 015°20'0 0.0
2017-Apr-13 22:00N 68°01' E 015°20'0 0.0
2017-Apr-13 21:30N 68°01' E 015°20'0 0.0
2017-Apr-13 21:00N 68°01' E 015°20'0 0.0
2017-Apr-13 20:30N 68°01' E 015°20'0 0.0
2017-Apr-13 20:00N 68°01' E 015°20'0 0.0
2017-Apr-13 19:30N 68°01' E 015°20'0 0.0
2017-Apr-13 19:01N 68°01' E 015°20'0 0.0
2017-Apr-13 18:30N 68°01' E 015°20'0 0.0
2017-Apr-13 18:00N 68°01' E 015°20'0 0.0
2017-Apr-13 17:30N 68°01' E 015°20'0 0.0
2017-Apr-13 17:00N 68°01' E 015°20'0 0.0
2017-Apr-13 16:30N 68°01' E 015°20'0 0.0
2017-Apr-13 16:00N 68°01' E 015°20'0 0.0
2017-Apr-13 15:31N 68°01' E 015°20'0 0.0
2017-Apr-13 15:00N 68°01' E 015°20'0 0.0
2017-Apr-13 14:00N 68°01' E 015°20'0 0.0
2017-Apr-13 13:30N 68°01' E 015°20'0 0.0
2017-Apr-13 13:00N 68°01' E 015°20'0 0.0
2017-Apr-13 12:30N 68°01' E 015°20'0 0.0
2017-Apr-13 12:00N 68°01' E 015°20'0 0.0
2017-Apr-13 11:30N 68°01' E 015°20'  

Dump ship's entire track history